sensor_id;sensor_type;location;lat;lon;timestamp;temperature;humidity
67750;DHT22;54550;48.838;8.828;2023-06-26T00:01:18;17.60;93.40
67750;DHT22;54550;48.838;8.828;2023-06-26T00:03:46;17.70;93.20
67750;DHT22;54550;48.838;8.828;2023-06-26T00:06:12;18.00;92.80
67750;DHT22;54550;48.838;8.828;2023-06-26T00:08:38;18.20;92.70
67750;DHT22;54550;48.838;8.828;2023-06-26T00:11:03;18.30;92.20
67750;DHT22;54550;48.838;8.828;2023-06-26T00:13:29;18.30;92.50
67750;DHT22;54550;48.838;8.828;2023-06-26T00:15:54;18.30;92.20
67750;DHT22;54550;48.838;8.828;2023-06-26T00:18:20;18.30;92.30
67750;DHT22;54550;48.838;8.828;2023-06-26T00:20:46;18.20;92.50
67750;DHT22;54550;48.838;8.828;2023-06-26T00:23:16;18.10;92.80
67750;DHT22;54550;48.838;8.828;2023-06-26T00:25:42;18.10;93.00
67750;DHT22;54550;48.838;8.828;2023-06-26T00:28:08;17.90;93.50
67750;DHT22;54550;48.838;8.828;2023-06-26T00:30:34;17.80;93.80
67750;DHT22;54550;48.838;8.828;2023-06-26T00:32:59;17.70;94.10
67750;DHT22;54550;48.838;8.828;2023-06-26T00:35:25;17.60;94.40
67750;DHT22;54550;48.838;8.828;2023-06-26T00:37:50;17.50;94.60
67750;DHT22;54550;48.838;8.828;2023-06-26T00:40:16;17.50;94.90
67750;DHT22;54550;48.838;8.828;2023-06-26T00:42:42;17.60;94.60
67750;DHT22;54550;48.838;8.828;2023-06-26T00:45:07;17.60;94.60
67750;DHT22;54550;48.838;8.828;2023-06-26T00:47:33;17.70;94.40
67750;DHT22;54550;48.838;8.828;2023-06-26T00:49:59;17.80;94.30
67750;DHT22;54550;48.838;8.828;2023-06-26T00:52:25;17.80;94.50
67750;DHT22;54550;48.838;8.828;2023-06-26T00:54:51;17.80;94.50
67750;DHT22;54550;48.838;8.828;2023-06-26T00:57:18;17.70;94.60
67750;DHT22;54550;48.838;8.828;2023-06-26T00:59:43;17.70;94.70
67750;DHT22;54550;48.838;8.828;2023-06-26T01:02:09;17.70;94.90
67750;DHT22;54550;48.838;8.828;2023-06-26T01:04:35;17.50;95.30
67750;DHT22;54550;48.838;8.828;2023-06-26T01:07:02;17.50;95.50
67750;DHT22;54550;48.838;8.828;2023-06-26T01:09:28;17.40;95.70
67750;DHT22;54550;48.838;8.828;2023-06-26T01:11:54;17.40;95.80
67750;DHT22;54550;48.838;8.828;2023-06-26T01:14:20;17.40;95.80
67750;DHT22;54550;48.838;8.828;2023-06-26T01:16:46;17.40;95.90
67750;DHT22;54550;48.838;8.828;2023-06-26T01:19:24;17.40;96.10
67750;DHT22;54550;48.838;8.828;2023-06-26T01:22:02;17.40;96.20
67750;DHT22;54550;48.838;8.828;2023-06-26T01:24:39;17.40;96.40
67750;DHT22;54550;48.838;8.828;2023-06-26T01:27:05;17.40;96.40
67750;DHT22;54550;48.838;8.828;2023-06-26T01:29:32;17.40;96.50
67750;DHT22;54550;48.838;8.828;2023-06-26T01:31:59;17.40;96.50
67750;DHT22;54550;48.838;8.828;2023-06-26T01:34:25;17.40;96.60
67750;DHT22;54550;48.838;8.828;2023-06-26T01:36:51;17.30;96.60
67750;DHT22;54550;48.838;8.828;2023-06-26T01:39:18;17.40;96.70
67750;DHT22;54550;48.838;8.828;2023-06-26T01:41:44;17.40;96.70
67750;DHT22;54550;48.838;8.828;2023-06-26T01:44:32;17.30;96.90
67750;DHT22;54550;48.838;8.828;2023-06-26T01:47:02;17.20;97.20
67750;DHT22;54550;48.838;8.828;2023-06-26T01:49:49;17.20;97.50
67750;DHT22;54550;48.838;8.828;2023-06-26T01:57:44;16.90;98.30
67750;DHT22;54550;48.838;8.828;2023-06-26T02:00:11;16.80;98.50
67750;DHT22;54550;48.838;8.828;2023-06-26T02:02:37;16.80;98.70
67750;DHT22;54550;48.838;8.828;2023-06-26T02:05:03;16.80;98.80
67750;DHT22;54550;48.838;8.828;2023-06-26T02:07:29;16.90;98.80
67750;DHT22;54550;48.838;8.828;2023-06-26T02:09:54;16.90;98.70
67750;DHT22;54550;48.838;8.828;2023-06-26T02:12:20;17.00;98.80
67750;DHT22;54550;48.838;8.828;2023-06-26T02:14:46;16.90;98.90
67750;DHT22;54550;48.838;8.828;2023-06-26T02:17:11;16.90;99.00
67750;DHT22;54550;48.838;8.828;2023-06-26T02:19:37;16.90;99.00
67750;DHT22;54550;48.838;8.828;2023-06-26T02:22:16;16.90;99.30
67750;DHT22;54550;48.838;8.828;2023-06-26T02:24:42;16.80;99.40
67750;DHT22;54550;48.838;8.828;2023-06-26T02:27:09;16.70;99.60
67750;DHT22;54550;48.838;8.828;2023-06-26T02:29:34;16.70;99.90
67750;DHT22;54550;48.838;8.828;2023-06-26T02:32:00;16.70;99.90
67750;DHT22;54550;48.838;8.828;2023-06-26T02:34:25;16.60;99.90
67750;DHT22;54550;48.838;8.828;2023-06-26T02:36:51;16.60;99.90
67750;DHT22;54550;48.838;8.828;2023-06-26T02:39:20;16.50;99.90
67750;DHT22;54550;48.838;8.828;2023-06-26T02:41:45;16.60;99.90
67750;DHT22;54550;48.838;8.828;2023-06-26T02:44:11;16.60;99.90
67750;DHT22;54550;48.838;8.828;2023-06-26T02:46:38;16.50;99.90
67750;DHT22;54550;48.838;8.828;2023-06-26T02:49:03;16.40;99.90
67750;DHT22;54550;48.838;8.828;2023-06-26T02:51:29;16.40;99.90
67750;DHT22;54550;48.838;8.828;2023-06-26T02:53:54;16.40;99.90
67750;DHT22;54550;48.838;8.828;2023-06-26T02:56:20;16.40;99.90
67750;DHT22;54550;48.838;8.828;2023-06-26T02:58:45;16.40;99.90
67750;DHT22;54550;48.838;8.828;2023-06-26T03:01:11;16.40;99.90
67750;DHT22;54550;48.838;8.828;2023-06-26T03:03:36;16.30;99.90
67750;DHT22;54550;48.838;8.828;2023-06-26T03:06:08;16.20;99.90
67750;DHT22;54550;48.838;8.828;2023-06-26T03:08:37;16.20;99.90
67750;DHT22;54550;48.838;8.828;2023-06-26T03:11:05;16.20;99.90
67750;DHT22;54550;48.838;8.828;2023-06-26T03:13:31;16.10;99.90
67750;DHT22;54550;48.838;8.828;2023-06-26T03:15:57;16.10;99.90
67750;DHT22;54550;48.838;8.828;2023-06-26T03:18:22;16.10;99.90
67750;DHT22;54550;48.838;8.828;2023-06-26T03:20:48;16.10;99.90
67750;DHT22;54550;48.838;8.828;2023-06-26T03:23:13;16.10;99.90
67750;DHT22;54550;48.838;8.828;2023-06-26T03:25:39;16.10;99.90
67750;DHT22;54550;48.838;8.828;2023-06-26T03:28:04;16.10;99.90
67750;DHT22;54550;48.838;8.828;2023-06-26T03:30:30;16.20;99.90
67750;DHT22;54550;48.838;8.828;2023-06-26T03:32:56;16.20;99.90
67750;DHT22;54550;48.838;8.828;2023-06-26T03:35:21;16.20;99.90
67750;DHT22;54550;48.838;8.828;2023-06-26T03:37:48;16.20;99.90
67750;DHT22;54550;48.838;8.828;2023-06-26T03:40:14;16.30;99.90
67750;DHT22;54550;48.838;8.828;2023-06-26T03:42:40;16.30;99.90
67750;DHT22;54550;48.838;8.828;2023-06-26T03:45:05;16.40;99.90
67750;DHT22;54550;48.838;8.828;2023-06-26T03:47:31;16.40;99.90
67750;DHT22;54550;48.838;8.828;2023-06-26T03:49:57;16.50;99.90
67750;DHT22;54550;48.838;8.828;2023-06-26T03:52:22;16.60;99.90
67750;DHT22;54550;48.838;8.828;2023-06-26T03:54:49;16.60;99.90
67750;DHT22;54550;48.838;8.828;2023-06-26T03:57:14;16.70;99.90
67750;DHT22;54550;48.838;8.828;2023-06-26T03:59:40;16.90;99.90
67750;DHT22;54550;48.838;8.828;2023-06-26T04:02:05;17.10;99.90
67750;DHT22;54550;48.838;8.828;2023-06-26T04:04:31;17.40;99.90
67750;DHT22;54550;48.838;8.828;2023-06-26T04:06:56;17.60;99.90
67750;DHT22;54550;48.838;8.828;2023-06-26T04:09:24;17.90;99.90
67750;DHT22;54550;48.838;8.828;2023-06-26T04:11:50;18.20;99.60
67750;DHT22;54550;48.838;8.828;2023-06-26T04:14:16;18.40;99.20
67750;DHT22;54550;48.838;8.828;2023-06-26T04:16:41;18.70;98.80
67750;DHT22;54550;48.838;8.828;2023-06-26T04:19:07;18.70;98.60
67750;DHT22;54550;48.838;8.828;2023-06-26T04:21:35;18.80;98.30
67750;DHT22;54550;48.838;8.828;2023-06-26T04:24:01;19.00;98.00
67750;DHT22;54550;48.838;8.828;2023-06-26T04:26:26;19.30;97.60
67750;DHT22;54550;48.838;8.828;2023-06-26T04:28:54;19.40;97.00
67750;DHT22;54550;48.838;8.828;2023-06-26T04:31:19;19.70;96.60
67750;DHT22;54550;48.838;8.828;2023-06-26T04:33:45;20.00;96.20
67750;DHT22;54550;48.838;8.828;2023-06-26T04:36:10;20.10;95.80
67750;DHT22;54550;48.838;8.828;2023-06-26T04:38:36;20.20;95.60
67750;DHT22;54550;48.838;8.828;2023-06-26T04:41:02;20.40;95.40
67750;DHT22;54550;48.838;8.828;2023-06-26T04:43:28;20.50;95.20
67750;DHT22;54550;48.838;8.828;2023-06-26T04:45:54;20.70;95.10
67750;DHT22;54550;48.838;8.828;2023-06-26T04:48:19;20.70;95.10
67750;DHT22;54550;48.838;8.828;2023-06-26T04:50:45;20.60;95.20
67750;DHT22;54550;48.838;8.828;2023-06-26T04:53:21;20.70;95.10
67750;DHT22;54550;48.838;8.828;2023-06-26T04:55:51;21.00;95.20
67750;DHT22;54550;48.838;8.828;2023-06-26T04:58:17;21.10;94.80
67750;DHT22;54550;48.838;8.828;2023-06-26T05:00:43;21.40;94.60
67750;DHT22;54550;48.838;8.828;2023-06-26T05:03:11;21.40;94.60
67750;DHT22;54550;48.838;8.828;2023-06-26T05:05:36;21.70;94.30
67750;DHT22;54550;48.838;8.828;2023-06-26T05:08:17;21.80;94.30
67750;DHT22;54550;48.838;8.828;2023-06-26T05:10:43;21.80;94.40
67750;DHT22;54550;48.838;8.828;2023-06-26T05:13:09;21.60;94.40
67750;DHT22;54550;48.838;8.828;2023-06-26T05:15:35;21.80;94.60
67750;DHT22;54550;48.838;8.828;2023-06-26T05:18:00;21.90;94.30
67750;DHT22;54550;48.838;8.828;2023-06-26T05:20:26;22.00;94.20
67750;DHT22;54550;48.838;8.828;2023-06-26T05:22:51;22.20;94.30
67750;DHT22;54550;48.838;8.828;2023-06-26T05:25:18;22.20;94.30
67750;DHT22;54550;48.838;8.828;2023-06-26T05:27:47;22.60;94.00
67750;DHT22;54550;48.838;8.828;2023-06-26T05:30:14;23.10;93.80
67750;DHT22;54550;48.838;8.828;2023-06-26T05:32:40;23.80;93.30
67750;DHT22;54550;48.838;8.828;2023-06-26T05:35:07;23.90;92.30
67750;DHT22;54550;48.838;8.828;2023-06-26T05:37:33;24.40;92.20
67750;DHT22;54550;48.838;8.828;2023-06-26T05:40:00;24.90;91.90
67750;DHT22;54550;48.838;8.828;2023-06-26T05:42:27;25.10;91.50
67750;DHT22;54550;48.838;8.828;2023-06-26T05:44:56;25.30;91.40
67750;DHT22;54550;48.838;8.828;2023-06-26T05:47:22;25.30;91.20
67750;DHT22;54550;48.838;8.828;2023-06-26T05:49:48;25.00;91.20
67750;DHT22;54550;48.838;8.828;2023-06-26T05:52:13;25.10;91.40
67750;DHT22;54550;48.838;8.828;2023-06-26T05:54:39;25.30;91.20
67750;DHT22;54550;48.838;8.828;2023-06-26T05:57:05;25.10;91.20
67750;DHT22;54550;48.838;8.828;2023-06-26T05:59:32;25.20;91.50
67750;DHT22;54550;48.838;8.828;2023-06-26T06:01:57;25.40;91.40
67750;DHT22;54550;48.838;8.828;2023-06-26T06:04:23;25.50;91.40
67750;DHT22;54550;48.838;8.828;2023-06-26T06:06:49;25.90;91.30
67750;DHT22;54550;48.838;8.828;2023-06-26T06:09:14;26.10;91.10
67750;DHT22;54550;48.838;8.828;2023-06-26T06:11:40;26.30;90.70
67750;DHT22;54550;48.838;8.828;2023-06-26T06:14:06;26.50;90.70
67750;DHT22;54550;48.838;8.828;2023-06-26T06:16:31;26.70;90.50
67750;DHT22;54550;48.838;8.828;2023-06-26T06:18:57;27.00;90.40
67750;DHT22;54550;48.838;8.828;2023-06-26T06:21:23;27.00;90.40
67750;DHT22;54550;48.838;8.828;2023-06-26T06:23:48;27.30;90.30
67750;DHT22;54550;48.838;8.828;2023-06-26T06:26:14;27.50;90.50
67750;DHT22;54550;48.838;8.828;2023-06-26T06:28:39;27.40;90.20
67750;DHT22;54550;48.838;8.828;2023-06-26T06:31:05;27.60;90.20
67750;DHT22;54550;48.838;8.828;2023-06-26T06:33:31;27.90;90.30
67750;DHT22;54550;48.838;8.828;2023-06-26T06:35:56;28.10;89.70
67750;DHT22;54550;48.838;8.828;2023-06-26T06:38:22;28.50;90.00
67750;DHT22;54550;48.838;8.828;2023-06-26T06:40:48;28.60;89.00
67750;DHT22;54550;48.838;8.828;2023-06-26T06:43:14;29.30;88.20
67750;DHT22;54550;48.838;8.828;2023-06-26T06:45:39;29.50;86.00
67750;DHT22;54550;48.838;8.828;2023-06-26T06:48:05;29.80;86.60
67750;DHT22;54550;48.838;8.828;2023-06-26T06:50:31;30.20;83.50
67750;DHT22;54550;48.838;8.828;2023-06-26T06:52:57;30.60;82.10
67750;DHT22;54550;48.838;8.828;2023-06-26T06:55:22;31.00;81.20
67750;DHT22;54550;48.838;8.828;2023-06-26T06:57:49;31.30;79.70
67750;DHT22;54550;48.838;8.828;2023-06-26T07:00:15;31.40;77.60
67750;DHT22;54550;48.838;8.828;2023-06-26T07:02:45;31.40;78.20
67750;DHT22;54550;48.838;8.828;2023-06-26T07:05:11;31.30;75.90
67750;DHT22;54550;48.838;8.828;2023-06-26T07:07:37;31.10;76.70
67750;DHT22;54550;48.838;8.828;2023-06-26T07:10:08;31.30;76.40
67750;DHT22;54550;48.838;8.828;2023-06-26T07:12:35;30.90;75.30
67750;DHT22;54550;48.838;8.828;2023-06-26T07:15:01;30.70;77.90
67750;DHT22;54550;48.838;8.828;2023-06-26T07:17:28;30.60;75.60
67750;DHT22;54550;48.838;8.828;2023-06-26T07:19:53;30.60;76.40
67750;DHT22;54550;48.838;8.828;2023-06-26T07:22:20;30.80;76.20
67750;DHT22;54550;48.838;8.828;2023-06-26T07:24:48;30.70;77.30
67750;DHT22;54550;48.838;8.828;2023-06-26T07:27:17;31.00;78.70
67750;DHT22;54550;48.838;8.828;2023-06-26T07:29:45;31.30;77.30
67750;DHT22;54550;48.838;8.828;2023-06-26T07:32:11;31.60;82.90
67750;DHT22;54550;48.838;8.828;2023-06-26T07:34:37;31.70;78.30
67750;DHT22;54550;48.838;8.828;2023-06-26T07:37:03;32.00;78.20
67750;DHT22;54550;48.838;8.828;2023-06-26T07:39:28;31.70;81.70
67750;DHT22;54550;48.838;8.828;2023-06-26T07:41:54;31.60;82.00
67750;DHT22;54550;48.838;8.828;2023-06-26T07:44:20;31.70;80.80
67750;DHT22;54550;48.838;8.828;2023-06-26T07:46:45;31.60;79.30
67750;DHT22;54550;48.838;8.828;2023-06-26T07:49:11;31.30;78.90
67750;DHT22;54550;48.838;8.828;2023-06-26T07:51:37;29.70;85.10
67750;DHT22;54550;48.838;8.828;2023-06-26T07:54:03;30.20;82.30
67750;DHT22;54550;48.838;8.828;2023-06-26T07:56:28;31.00;83.40
67750;DHT22;54550;48.838;8.828;2023-06-26T07:58:54;31.20;81.00
67750;DHT22;54550;48.838;8.828;2023-06-26T08:01:20;31.10;77.40
67750;DHT22;54550;48.838;8.828;2023-06-26T08:03:45;30.80;76.80
67750;DHT22;54550;48.838;8.828;2023-06-26T08:06:11;30.70;76.90
67750;DHT22;54550;48.838;8.828;2023-06-26T08:08:36;30.90;78.80
67750;DHT22;54550;48.838;8.828;2023-06-26T08:11:02;31.20;80.30
67750;DHT22;54550;48.838;8.828;2023-06-26T08:13:28;31.50;80.80
67750;DHT22;54550;48.838;8.828;2023-06-26T08:15:53;31.20;80.80
67750;DHT22;54550;48.838;8.828;2023-06-26T08:18:19;31.00;78.50
67750;DHT22;54550;48.838;8.828;2023-06-26T08:20:45;31.00;79.50
67750;DHT22;54550;48.838;8.828;2023-06-26T08:23:10;31.50;79.10
67750;DHT22;54550;48.838;8.828;2023-06-26T08:25:36;31.50;76.90
67750;DHT22;54550;48.838;8.828;2023-06-26T08:28:01;31.40;77.20
67750;DHT22;54550;48.838;8.828;2023-06-26T08:30:27;31.60;79.80
67750;DHT22;54550;48.838;8.828;2023-06-26T08:32:56;31.90;77.00
67750;DHT22;54550;48.838;8.828;2023-06-26T08:35:22;32.40;74.80
67750;DHT22;54550;48.838;8.828;2023-06-26T08:37:47;32.40;73.50
67750;DHT22;54550;48.838;8.828;2023-06-26T08:40:16;32.10;73.50
67750;DHT22;54550;48.838;8.828;2023-06-26T08:42:42;32.40;74.50
67750;DHT22;54550;48.838;8.828;2023-06-26T08:45:08;32.80;71.70
67750;DHT22;54550;48.838;8.828;2023-06-26T08:47:35;32.90;71.90
67750;DHT22;54550;48.838;8.828;2023-06-26T08:50:13;32.70;72.00
67750;DHT22;54550;48.838;8.828;2023-06-26T08:55:27;32.40;73.60
67750;DHT22;54550;48.838;8.828;2023-06-26T08:57:54;32.80;72.90
67750;DHT22;54550;48.838;8.828;2023-06-26T09:00:20;32.80;74.70
67750;DHT22;54550;48.838;8.828;2023-06-26T09:02:46;32.80;74.10
67750;DHT22;54550;48.838;8.828;2023-06-26T09:05:11;32.70;80.60
67750;DHT22;54550;48.838;8.828;2023-06-26T09:07:37;32.30;80.00
67750;DHT22;54550;48.838;8.828;2023-06-26T09:10:03;32.60;82.90
67750;DHT22;54550;48.838;8.828;2023-06-26T09:12:29;32.30;80.50
67750;DHT22;54550;48.838;8.828;2023-06-26T09:14:56;31.50;82.90
67750;DHT22;54550;48.838;8.828;2023-06-26T09:17:25;31.10;87.50
67750;DHT22;54550;48.838;8.828;2023-06-26T09:19:54;30.90;69.90
67750;DHT22;54550;48.838;8.828;2023-06-26T09:22:19;31.10;71.40
67750;DHT22;54550;48.838;8.828;2023-06-26T09:24:45;31.60;70.80
67750;DHT22;54550;48.838;8.828;2023-06-26T09:27:11;32.00;70.10
67750;DHT22;54550;48.838;8.828;2023-06-26T09:29:37;32.10;69.90
67750;DHT22;54550;48.838;8.828;2023-06-26T09:32:03;32.20;70.50
67750;DHT22;54550;48.838;8.828;2023-06-26T09:34:32;32.30;70.30
67750;DHT22;54550;48.838;8.828;2023-06-26T09:36:59;32.00;70.20
67750;DHT22;54550;48.838;8.828;2023-06-26T09:39:30;31.80;71.50
67750;DHT22;54550;48.838;8.828;2023-06-26T09:41:55;31.80;72.20
67750;DHT22;54550;48.838;8.828;2023-06-26T09:44:23;31.70;72.80
67750;DHT22;54550;48.838;8.828;2023-06-26T09:46:48;31.70;72.40
67750;DHT22;54550;48.838;8.828;2023-06-26T09:49:14;31.60;73.20
67750;DHT22;54550;48.838;8.828;2023-06-26T09:51:41;31.90;74.40
67750;DHT22;54550;48.838;8.828;2023-06-26T09:54:07;31.80;73.90
67750;DHT22;54550;48.838;8.828;2023-06-26T09:56:34;31.30;75.30
67750;DHT22;54550;48.838;8.828;2023-06-26T09:59:02;30.70;76.30
67750;DHT22;54550;48.838;8.828;2023-06-26T10:01:29;30.90;76.50
67750;DHT22;54550;48.838;8.828;2023-06-26T10:03:55;31.50;75.70
67750;DHT22;54550;48.838;8.828;2023-06-26T10:06:45;31.30;75.10
67750;DHT22;54550;48.838;8.828;2023-06-26T10:09:13;30.10;74.30
67750;DHT22;54550;48.838;8.828;2023-06-26T10:12:02;29.30;76.90
67750;DHT22;54550;48.838;8.828;2023-06-26T10:14:36;28.80;78.40
67750;DHT22;54550;48.838;8.828;2023-06-26T10:17:08;28.10;78.40
67750;DHT22;54550;48.838;8.828;2023-06-26T10:19:35;27.80;80.20
67750;DHT22;54550;48.838;8.828;2023-06-26T10:22:03;27.60;80.90
67750;DHT22;54550;48.838;8.828;2023-06-26T10:24:32;27.60;82.10
67750;DHT22;54550;48.838;8.828;2023-06-26T10:27:14;27.90;82.20
67750;DHT22;54550;48.838;8.828;2023-06-26T10:29:41;28.10;80.30
67750;DHT22;54550;48.838;8.828;2023-06-26T10:32:10;28.30;81.10
67750;DHT22;54550;48.838;8.828;2023-06-26T10:34:37;28.90;82.10
67750;DHT22;54550;48.838;8.828;2023-06-26T10:37:03;28.30;81.80
67750;DHT22;54550;48.838;8.828;2023-06-26T10:39:49;28.60;82.20
67750;DHT22;54550;48.838;8.828;2023-06-26T10:42:15;29.20;82.30
67750;DHT22;54550;48.838;8.828;2023-06-26T10:44:43;29.70;81.30
67750;DHT22;54550;48.838;8.828;2023-06-26T10:47:09;29.50;81.50
67750;DHT22;54550;48.838;8.828;2023-06-26T10:49:37;29.00;81.30
67750;DHT22;54550;48.838;8.828;2023-06-26T10:52:05;29.40;82.50
67750;DHT22;54550;48.838;8.828;2023-06-26T10:54:31;30.10;81.20
67750;DHT22;54550;48.838;8.828;2023-06-26T10:56:58;30.30;80.50
67750;DHT22;54550;48.838;8.828;2023-06-26T10:59:25;30.60;80.00
67750;DHT22;54550;48.838;8.828;2023-06-26T11:07:21;29.60;81.80
67750;DHT22;54550;48.838;8.828;2023-06-26T11:10:02;29.80;81.90
67750;DHT22;54550;48.838;8.828;2023-06-26T11:12:40;30.40;81.20
67750;DHT22;54550;48.838;8.828;2023-06-26T11:15:13;30.30;81.20
67750;DHT22;54550;48.838;8.828;2023-06-26T11:17:40;30.70;81.30
67750;DHT22;54550;48.838;8.828;2023-06-26T11:20:08;30.40;82.00
67750;DHT22;54550;48.838;8.828;2023-06-26T11:22:35;30.20;82.00
67750;DHT22;54550;48.838;8.828;2023-06-26T11:25:02;29.90;83.70
67750;DHT22;54550;48.838;8.828;2023-06-26T11:27:39;29.90;82.70
67750;DHT22;54550;48.838;8.828;2023-06-26T11:30:25;30.00;84.20
67750;DHT22;54550;48.838;8.828;2023-06-26T11:32:51;30.20;82.60
67750;DHT22;54550;48.838;8.828;2023-06-26T11:35:23;30.40;82.50
67750;DHT22;54550;48.838;8.828;2023-06-26T11:38:00;30.50;81.80
67750;DHT22;54550;48.838;8.828;2023-06-26T11:40:29;30.70;82.70
67750;DHT22;54550;48.838;8.828;2023-06-26T11:43:01;30.70;82.70
67750;DHT22;54550;48.838;8.828;2023-06-26T11:45:33;30.20;82.70
67750;DHT22;54550;48.838;8.828;2023-06-26T11:47:59;30.00;84.20
67750;DHT22;54550;48.838;8.828;2023-06-26T11:50:25;29.90;84.10
67750;DHT22;54550;48.838;8.828;2023-06-26T11:52:55;29.90;85.10
67750;DHT22;54550;48.838;8.828;2023-06-26T11:55:22;30.00;84.60
67750;DHT22;54550;48.838;8.828;2023-06-26T11:57:49;29.80;84.70
67750;DHT22;54550;48.838;8.828;2023-06-26T12:00:16;30.00;84.60
67750;DHT22;54550;48.838;8.828;2023-06-26T12:02:45;30.20;84.30
67750;DHT22;54550;48.838;8.828;2023-06-26T12:05:13;30.60;84.40
67750;DHT22;54550;48.838;8.828;2023-06-26T12:07:40;30.80;82.60
67750;DHT22;54550;48.838;8.828;2023-06-26T12:10:06;30.80;82.10
67750;DHT22;54550;48.838;8.828;2023-06-26T12:12:32;30.80;81.50
67750;DHT22;54550;48.838;8.828;2023-06-26T12:14:58;30.50;81.60
67750;DHT22;54550;48.838;8.828;2023-06-26T12:17:25;30.30;83.00
67750;DHT22;54550;48.838;8.828;2023-06-26T12:19:51;30.50;83.00
67750;DHT22;54550;48.838;8.828;2023-06-26T12:22:17;31.00;82.30
67750;DHT22;54550;48.838;8.828;2023-06-26T12:24:44;31.10;81.40
67750;DHT22;54550;48.838;8.828;2023-06-26T12:27:14;31.40;80.50
67750;DHT22;54550;48.838;8.828;2023-06-26T12:29:45;30.80;80.80
67750;DHT22;54550;48.838;8.828;2023-06-26T12:32:11;30.50;81.40
67750;DHT22;54550;48.838;8.828;2023-06-26T12:34:38;30.70;81.80
67750;DHT22;54550;48.838;8.828;2023-06-26T12:37:07;30.60;80.30
67750;DHT22;54550;48.838;8.828;2023-06-26T12:42:16;30.90;80.50
67750;DHT22;54550;48.838;8.828;2023-06-26T12:44:42;30.60;80.50
67750;DHT22;54550;48.838;8.828;2023-06-26T12:47:07;30.80;82.10
67750;DHT22;54550;48.838;8.828;2023-06-26T12:49:34;31.00;81.20
67750;DHT22;54550;48.838;8.828;2023-06-26T12:52:03;31.00;81.90
67750;DHT22;54550;48.838;8.828;2023-06-26T12:56:57;31.50;73.10
67750;DHT22;54550;48.838;8.828;2023-06-26T12:59:22;31.80;73.30
67750;DHT22;54550;48.838;8.828;2023-06-26T13:01:48;32.00;73.40
67750;DHT22;54550;48.838;8.828;2023-06-26T13:04:14;31.80;73.30
67750;DHT22;54550;48.838;8.828;2023-06-26T13:06:40;31.60;70.90
67750;DHT22;54550;48.838;8.828;2023-06-26T13:09:05;30.80;73.20
67750;DHT22;54550;48.838;8.828;2023-06-26T13:11:32;30.90;72.80
67750;DHT22;54550;48.838;8.828;2023-06-26T13:13:58;31.40;72.60
67750;DHT22;54550;48.838;8.828;2023-06-26T13:16:25;31.40;71.00
67750;DHT22;54550;48.838;8.828;2023-06-26T13:18:51;31.00;71.50
67750;DHT22;54550;48.838;8.828;2023-06-26T13:21:16;30.90;71.50
67750;DHT22;54550;48.838;8.828;2023-06-26T13:23:43;30.60;72.20
67750;DHT22;54550;48.838;8.828;2023-06-26T13:26:09;31.00;70.60
67750;DHT22;54550;48.838;8.828;2023-06-26T13:28:36;31.10;69.50
67750;DHT22;54550;48.838;8.828;2023-06-26T13:31:02;31.30;69.50
67750;DHT22;54550;48.838;8.828;2023-06-26T13:33:28;31.80;68.20
67750;DHT22;54550;48.838;8.828;2023-06-26T13:35:54;31.80;68.30
67750;DHT22;54550;48.838;8.828;2023-06-26T13:38:23;31.60;68.60
67750;DHT22;54550;48.838;8.828;2023-06-26T13:40:53;31.60;69.00
67750;DHT22;54550;48.838;8.828;2023-06-26T13:43:20;31.60;68.00
67750;DHT22;54550;48.838;8.828;2023-06-26T13:45:46;31.40;68.80
67750;DHT22;54550;48.838;8.828;2023-06-26T13:48:12;31.70;68.10
67750;DHT22;54550;48.838;8.828;2023-06-26T13:50:39;32.10;67.00
67750;DHT22;54550;48.838;8.828;2023-06-26T13:53:04;31.50;67.80
67750;DHT22;54550;48.838;8.828;2023-06-26T13:55:31;31.00;67.80
67750;DHT22;54550;48.838;8.828;2023-06-26T13:57:56;31.40;69.10
67750;DHT22;54550;48.838;8.828;2023-06-26T14:00:22;31.80;68.40
67750;DHT22;54550;48.838;8.828;2023-06-26T14:02:48;32.40;67.70
67750;DHT22;54550;48.838;8.828;2023-06-26T14:05:14;32.10;66.80
67750;DHT22;54550;48.838;8.828;2023-06-26T14:07:40;31.20;68.10
67750;DHT22;54550;48.838;8.828;2023-06-26T14:10:06;31.00;69.40
67750;DHT22;54550;48.838;8.828;2023-06-26T14:12:32;31.10;69.60
67750;DHT22;54550;48.838;8.828;2023-06-26T14:14:58;30.30;70.40
67750;DHT22;54550;48.838;8.828;2023-06-26T14:17:24;30.30;70.80
67750;DHT22;54550;48.838;8.828;2023-06-26T14:19:52;30.80;70.00
67750;DHT22;54550;48.838;8.828;2023-06-26T14:22:18;31.20;68.70
67750;DHT22;54550;48.838;8.828;2023-06-26T14:24:43;31.10;69.00
67750;DHT22;54550;48.838;8.828;2023-06-26T14:27:09;31.10;69.70
67750;DHT22;54550;48.838;8.828;2023-06-26T14:29:36;30.90;68.50
67750;DHT22;54550;48.838;8.828;2023-06-26T14:32:01;30.60;69.10
67750;DHT22;54550;48.838;8.828;2023-06-26T14:34:27;30.40;69.90
67750;DHT22;54550;48.838;8.828;2023-06-26T14:36:52;30.30;70.90
67750;DHT22;54550;48.838;8.828;2023-06-26T14:39:18;30.30;70.20
67750;DHT22;54550;48.838;8.828;2023-06-26T14:41:44;30.30;69.30
67750;DHT22;54550;48.838;8.828;2023-06-26T14:44:09;30.30;68.90
67750;DHT22;54550;48.838;8.828;2023-06-26T14:46:36;30.50;69.60
67750;DHT22;54550;48.838;8.828;2023-06-26T14:49:03;30.50;70.10
67750;DHT22;54550;48.838;8.828;2023-06-26T14:51:28;30.20;69.20
67750;DHT22;54550;48.838;8.828;2023-06-26T14:53:54;30.20;69.30
67750;DHT22;54550;48.838;8.828;2023-06-26T14:56:20;30.50;69.00
67750;DHT22;54550;48.838;8.828;2023-06-26T14:58:46;30.70;68.20
67750;DHT22;54550;48.838;8.828;2023-06-26T15:01:16;30.50;67.50
67750;DHT22;54550;48.838;8.828;2023-06-26T15:03:42;31.00;67.20
67750;DHT22;54550;48.838;8.828;2023-06-26T15:06:07;31.10;66.90
67750;DHT22;54550;48.838;8.828;2023-06-26T15:08:34;30.60;68.10
67750;DHT22;54550;48.838;8.828;2023-06-26T15:11:01;30.00;69.10
67750;DHT22;54550;48.838;8.828;2023-06-26T15:13:27;29.50;70.30
67750;DHT22;54550;48.838;8.828;2023-06-26T15:15:52;29.30;70.60
67750;DHT22;54550;48.838;8.828;2023-06-26T15:18:18;28.90;73.50
67750;DHT22;54550;48.838;8.828;2023-06-26T15:20:43;28.70;72.70
67750;DHT22;54550;48.838;8.828;2023-06-26T15:23:09;29.10;72.10
67750;DHT22;54550;48.838;8.828;2023-06-26T15:25:34;28.70;71.10
67750;DHT22;54550;48.838;8.828;2023-06-26T15:28:02;28.70;72.20
67750;DHT22;54550;48.838;8.828;2023-06-26T15:30:28;28.80;73.30
67750;DHT22;54550;48.838;8.828;2023-06-26T15:32:53;29.30;71.70
67750;DHT22;54550;48.838;8.828;2023-06-26T15:35:19;29.70;71.10
67750;DHT22;54550;48.838;8.828;2023-06-26T15:37:45;28.90;71.00
67750;DHT22;54550;48.838;8.828;2023-06-26T15:40:12;28.20;73.10
67750;DHT22;54550;48.838;8.828;2023-06-26T15:42:51;27.60;73.70
67750;DHT22;54550;48.838;8.828;2023-06-26T15:45:18;27.70;74.10
67750;DHT22;54550;48.838;8.828;2023-06-26T15:47:44;28.20;74.80